Аэропорт: Кызылорда. Кызылорда

ICAO: UAOO

METAR:
2019/05/26 14:00
UAOO 261400Z 01004MPS CAVOK 27/03 Q1018 NOSIG RMK QFE752/1002
METAR:
2019/05/16 00:06
TAF TAF UAOO 152300Z 1500/1609 06005MPS CAVOK